createdAt,value
2023-03-06T00:01:14.352Z,18.43
2023-03-06T00:03:42.685Z,18.42
2023-03-06T00:06:10.110Z,18.37
2023-03-06T00:08:36.633Z,18.40
2023-03-06T00:11:03.209Z,18.38
2023-03-06T00:13:32.375Z,18.36
2023-03-06T00:16:01.640Z,18.39
2023-03-06T00:18:28.131Z,18.38
2023-03-06T00:20:56.405Z,18.38
2023-03-06T00:23:22.960Z,18.35
2023-03-06T00:28:36.196Z,18.41
2023-03-06T00:31:03.431Z,18.39
2023-03-06T00:33:31.700Z,18.43
2023-03-06T00:36:00.918Z,18.34
2023-03-06T00:38:27.359Z,18.38
2023-03-06T00:43:50.762Z,18.37
2023-03-06T00:46:17.254Z,18.43
2023-03-06T00:48:43.775Z,18.39
2023-03-06T00:51:13.944Z,18.37
2023-03-06T00:53:40.538Z,18.39
2023-03-06T00:58:51.053Z,18.33
2023-03-06T01:01:19.447Z,18.33
2023-03-06T01:03:48.700Z,18.39
2023-03-06T01:06:15.073Z,18.32
2023-03-06T01:08:41.573Z,18.36
2023-03-06T01:14:03.605Z,18.39
2023-03-06T01:16:30.109Z,18.36
2023-03-06T01:18:56.533Z,18.33
2023-03-06T01:21:24.867Z,18.40
2023-03-06T01:23:51.278Z,18.37
2023-03-06T01:29:04.655Z,18.35
2023-03-06T01:31:31.950Z,18.35
2023-03-06T01:34:00.288Z,18.41
2023-03-06T01:36:27.511Z,18.35
2023-03-06T01:38:55.818Z,18.42
2023-03-06T01:44:06.298Z,18.35
2023-03-06T01:46:32.739Z,18.38
2023-03-06T01:49:00.121Z,18.32
2023-03-06T01:51:28.432Z,18.38
2023-03-06T01:53:54.930Z,18.39
2023-03-06T01:59:18.177Z,18.34
2023-03-06T02:01:44.669Z,18.40
2023-03-06T02:04:13.818Z,18.39
2023-03-06T02:06:40.271Z,18.42
2023-03-06T02:09:06.772Z,18.38
2023-03-06T02:14:19.322Z,18.36
2023-03-06T02:16:45.772Z,18.40
2023-03-06T02:19:14.087Z,18.31
2023-03-06T02:21:40.490Z,18.37
2023-03-06T02:24:06.928Z,18.32
2023-03-06T02:29:19.837Z,18.39
2023-03-06T02:31:47.039Z,18.32
2023-03-06T02:34:14.287Z,18.34
2023-03-06T02:36:40.738Z,18.37
2023-03-06T02:39:09.985Z,18.37
2023-03-06T02:44:20.367Z,18.40
2023-03-06T02:46:48.672Z,18.36
2023-03-06T02:49:15.102Z,18.39
2023-03-06T02:51:44.271Z,18.35
2023-03-06T02:54:12.554Z,18.30
2023-03-06T02:59:35.700Z,18.36
2023-03-06T03:02:03.019Z,18.36
2023-03-06T03:04:31.374Z,18.36
2023-03-06T03:07:00.562Z,18.38
2023-03-06T03:09:28.849Z,18.28
2023-03-06T03:14:42.069Z,18.37
2023-03-06T03:17:08.485Z,18.32
2023-03-06T03:19:34.862Z,18.34
2023-03-06T03:22:03.988Z,18.38
2023-03-06T03:24:32.330Z,18.36
2023-03-06T03:29:43.871Z,18.34
2023-03-06T03:32:11.201Z,18.28
2023-03-06T03:34:40.372Z,18.35
2023-03-06T03:37:06.771Z,18.29
2023-03-06T03:39:33.288Z,18.28
2023-03-06T03:44:46.514Z,18.37
2023-03-06T03:47:12.968Z,18.27
2023-03-06T03:49:42.130Z,18.39
2023-03-06T03:52:10.400Z,18.32
2023-03-06T03:54:38.664Z,18.29
2023-03-06T03:57:07.001Z,18.36
2023-03-06T03:59:33.417Z,18.28
2023-03-06T04:02:02.646Z,18.31
2023-03-06T04:04:29.924Z,18.34
2023-03-06T04:06:56.339Z,18.33
2023-03-06T04:09:22.687Z,18.40
2023-03-06T04:11:51.818Z,18.36
2023-03-06T04:14:18.378Z,18.33
2023-03-06T04:16:47.545Z,18.33
2023-03-06T04:19:16.705Z,18.25
2023-03-06T04:21:43.961Z,18.28
2023-03-06T04:24:10.353Z,18.30
2023-03-06T04:26:36.831Z,18.31
2023-03-06T04:29:06.069Z,18.38
2023-03-06T04:31:33.346Z,18.35
2023-03-06T04:33:59.815Z,18.35
2023-03-06T04:36:28.984Z,18.34
2023-03-06T04:38:55.450Z,18.32
2023-03-06T04:41:23.783Z,18.37
2023-03-06T04:43:51.402Z,18.31
2023-03-06T04:46:20.551Z,18.30
2023-03-06T04:48:48.847Z,18.36
2023-03-06T04:51:18.118Z,18.29
2023-03-06T04:53:44.573Z,18.34
2023-03-06T04:56:11.009Z,18.30
2023-03-06T04:58:37.441Z,18.31
2023-03-06T05:01:03.882Z,18.37
2023-03-06T05:03:30.388Z,18.25
2023-03-06T05:05:56.782Z,18.36
2023-03-06T05:08:23.178Z,18.33
2023-03-06T05:10:49.614Z,18.40
2023-03-06T05:13:16.121Z,18.36
2023-03-06T05:18:27.340Z,18.31
2023-03-06T05:20:55.603Z,18.38
2023-03-06T05:23:21.998Z,18.34
2023-03-06T05:25:50.330Z,18.39
2023-03-06T05:28:19.492Z,18.37
2023-03-06T05:33:40.982Z,18.31
2023-03-06T05:36:07.413Z,18.32
2023-03-06T05:38:33.822Z,18.31
2023-03-06T05:41:01.080Z,18.39
2023-03-06T05:43:28.311Z,18.35
2023-03-06T05:48:38.596Z,18.33
2023-03-06T05:51:04.988Z,18.35
2023-03-06T05:53:31.537Z,18.42
2023-03-06T05:55:59.838Z,18.49
2023-03-06T05:58:26.253Z,18.55
2023-03-06T06:03:47.731Z,18.57
2023-03-06T06:06:14.265Z,18.58
2023-03-06T06:08:40.703Z,18.61
2023-03-06T06:11:07.128Z,18.66
2023-03-06T06:13:34.555Z,18.70
2023-03-06T06:18:45.033Z,18.74
2023-03-06T06:21:11.492Z,18.70
2023-03-06T06:23:37.961Z,18.71
2023-03-06T06:26:04.429Z,18.72
2023-03-06T06:28:30.896Z,18.71
2023-03-06T06:33:53.035Z,18.66
2023-03-06T06:36:19.578Z,18.70
2023-03-06T06:38:46.973Z,18.74
2023-03-06T06:43:59.976Z,18.71
2023-03-06T06:49:11.269Z,18.73
2023-03-06T06:51:37.740Z,18.74
2023-03-06T06:54:05.100Z,18.75
2023-03-06T06:56:31.609Z,18.76
2023-03-06T06:59:14.002Z,18.79
2023-03-06T07:04:28.213Z,18.79
2023-03-06T07:06:55.598Z,18.79
2023-03-06T07:09:22.981Z,18.82
2023-03-06T07:11:50.402Z,18.80
2023-03-06T07:14:16.861Z,18.81
2023-03-06T07:19:38.744Z,18.86
2023-03-06T07:22:06.946Z,18.88
2023-03-06T07:24:33.749Z,18.88
2023-03-06T07:27:00.236Z,18.88
2023-03-06T07:29:26.708Z,18.88
2023-03-06T07:34:37.374Z,18.89
2023-03-06T07:37:03.800Z,18.86
2023-03-06T07:39:31.159Z,18.84
2023-03-06T07:41:57.629Z,18.86
2023-03-06T07:44:24.642Z,18.86
2023-03-06T07:49:37.348Z,18.87
2023-03-06T07:52:04.997Z,18.89
2023-03-06T07:54:32.649Z,18.84
2023-03-06T07:57:00.388Z,18.88
2023-03-06T07:59:26.861Z,18.95
2023-03-06T08:04:47.508Z,18.72
2023-03-06T08:07:15.590Z,18.43
2023-03-06T08:09:42.055Z,18.41
2023-03-06T08:12:08.536Z,18.39
2023-03-06T08:14:35.023Z,18.36
2023-03-06T08:19:46.514Z,18.29
2023-03-06T08:22:13.918Z,18.21
2023-03-06T08:24:41.118Z,18.31
2023-03-06T08:27:07.568Z,18.14
2023-03-06T08:29:34.068Z,18.20
2023-03-06T08:34:55.558Z,18.21
2023-03-06T08:37:22.054Z,18.11
2023-03-06T08:39:49.479Z,18.12
2023-03-06T08:42:16.847Z,18.06
2023-03-06T08:44:44.221Z,18.14
2023-03-06T08:50:04.803Z,18.20
2023-03-06T08:52:32.592Z,18.33
2023-03-06T08:54:59.041Z,18.33
2023-03-06T08:57:26.347Z,18.27
2023-03-06T08:59:53.624Z,18.13
2023-03-06T09:05:05.114Z,18.21
2023-03-06T09:07:31.569Z,18.25
2023-03-06T09:10:00.176Z,18.37
2023-03-06T09:12:27.248Z,18.56
2023-03-06T09:14:54.595Z,18.81
2023-03-06T09:17:21.069Z,19.09
2023-03-06T09:19:49.361Z,18.95
2023-03-06T09:22:15.846Z,18.98
2023-03-06T09:24:42.312Z,18.57
2023-03-06T09:27:09.566Z,18.55
2023-03-06T09:29:36.058Z,18.41
2023-03-06T09:32:02.590Z,18.16
2023-03-06T09:34:29.057Z,17.94
2023-03-06T09:36:57.431Z,17.69
2023-03-06T09:39:24.124Z,17.73
2023-03-06T09:41:50.581Z,17.75
2023-03-06T09:44:17.171Z,17.67
2023-03-06T09:46:43.648Z,17.61
2023-03-06T09:49:10.930Z,17.62
2023-03-06T09:51:38.265Z,17.66
2023-03-06T09:54:06.584Z,17.63
2023-03-06T09:56:33.068Z,17.63
2023-03-06T09:59:00.360Z,17.54
2023-03-06T10:01:26.852Z,17.57
2023-03-06T10:03:55.172Z,17.63
2023-03-06T10:06:22.672Z,17.67
2023-03-06T10:08:49.992Z,17.77
2023-03-06T10:11:18.271Z,17.86
2023-03-06T10:13:44.717Z,17.80
2023-03-06T10:16:13.114Z,17.64
2023-03-06T10:18:42.322Z,17.76
2023-03-06T10:21:18.787Z,17.76
2023-03-06T10:23:47.734Z,17.60
2023-03-06T10:26:16.068Z,17.63
2023-03-06T10:28:42.590Z,17.74
2023-03-06T10:31:11.794Z,17.76
2023-03-06T10:33:38.366Z,17.75
2023-03-06T10:38:51.523Z,17.27
2023-03-06T10:41:18.784Z,17.25
2023-03-06T10:43:47.106Z,17.05
2023-03-06T10:46:15.420Z,16.89
2023-03-06T10:48:42.412Z,16.90
2023-03-06T10:54:07.617Z,16.45
2023-03-06T10:56:34.169Z,16.57
2023-03-06T10:59:00.593Z,16.62
2023-03-06T11:01:27.007Z,16.49
2023-03-06T11:03:53.443Z,16.48
2023-03-06T11:09:04.015Z,16.58
2023-03-06T11:11:37.426Z,16.45
2023-03-06T11:14:04.460Z,16.42
2023-03-06T11:16:30.920Z,16.46
2023-03-06T11:18:57.455Z,16.43
2023-03-06T11:24:10.608Z,16.39
2023-03-06T11:26:39.771Z,16.35
2023-03-06T11:29:06.270Z,16.35
2023-03-06T11:31:32.870Z,16.30
2023-03-06T11:34:00.151Z,16.31
2023-03-06T11:39:25.056Z,16.24
2023-03-06T11:41:53.325Z,16.67
2023-03-06T11:44:20.743Z,17.18
2023-03-06T11:46:47.332Z,17.39
2023-03-06T11:49:13.762Z,17.57
2023-03-06T11:54:26.937Z,17.55
2023-03-06T11:56:53.333Z,17.60
2023-03-06T11:59:20.616Z,17.59
2023-03-06T12:01:47.075Z,17.63
2023-03-06T12:04:15.459Z,17.67
2023-03-06T12:09:30.795Z,17.74
2023-03-06T12:11:57.141Z,17.81
2023-03-06T12:14:26.333Z,17.86
2023-03-06T12:16:52.813Z,17.87
2023-03-06T12:19:20.200Z,17.96
2023-03-06T12:24:44.051Z,17.93
2023-03-06T12:27:10.503Z,17.89
2023-03-06T12:29:39.707Z,17.93
2023-03-06T12:32:08.174Z,18.01
2023-03-06T12:34:34.655Z,18.06
2023-03-06T12:39:45.964Z,17.99
2023-03-06T12:42:22.627Z,18.12
2023-03-06T12:44:50.052Z,17.89
2023-03-06T12:47:17.315Z,17.72
2023-03-06T12:49:43.731Z,17.66
2023-03-06T12:54:53.939Z,17.68
2023-03-06T12:57:20.494Z,17.67
2023-03-06T12:59:47.768Z,17.68
2023-03-06T13:02:14.242Z,17.66
2023-03-06T13:04:40.768Z,17.69
2023-03-06T13:09:51.452Z,17.72
2023-03-06T13:12:17.797Z,17.73
2023-03-06T13:14:53.928Z,17.85
2023-03-06T13:17:21.031Z,17.83
2023-03-06T13:19:47.362Z,17.76
2023-03-06T13:25:08.459Z,17.84
2023-03-06T13:27:34.932Z,17.83
2023-03-06T13:30:01.315Z,17.68
2023-03-06T13:32:27.794Z,17.67
2023-03-06T13:34:54.180Z,17.66
2023-03-06T13:40:04.866Z,17.65
2023-03-06T13:42:31.484Z,17.65
2023-03-06T13:44:58.609Z,17.66
2023-03-06T13:47:24.990Z,17.66
2023-03-06T13:49:51.314Z,17.63
2023-03-06T13:55:11.979Z,17.66
2023-03-06T13:57:38.413Z,17.66
2023-03-06T14:00:09.247Z,17.67
2023-03-06T14:02:36.275Z,17.69
2023-03-06T14:05:02.704Z,17.69
2023-03-06T14:10:12.982Z,17.73
2023-03-06T14:12:39.359Z,17.79
2023-03-06T14:15:05.783Z,17.81
2023-03-06T14:17:32.130Z,17.90
2023-03-06T14:19:59.580Z,17.98
2023-03-06T14:22:25.938Z,18.01
2023-03-06T14:24:52.291Z,17.99
2023-03-06T14:27:19.535Z,17.97
2023-03-06T14:29:45.872Z,17.99
2023-03-06T14:32:12.255Z,17.95
2023-03-06T14:34:38.684Z,18.02
2023-03-06T14:37:05.323Z,17.96
2023-03-06T14:39:31.782Z,17.98
2023-03-06T14:41:58.142Z,18.04
2023-03-06T14:44:25.442Z,17.98
2023-03-06T14:46:51.908Z,17.91
2023-03-06T14:49:18.373Z,17.96
2023-03-06T14:51:45.624Z,17.85
2023-03-06T14:54:11.999Z,17.95
2023-03-06T14:56:39.489Z,17.94
2023-03-06T14:59:05.860Z,17.85
2023-03-06T15:01:33.122Z,17.83
2023-03-06T15:03:59.539Z,17.80
2023-03-06T15:06:25.976Z,17.83
2023-03-06T15:08:52.502Z,17.87
2023-03-06T15:11:19.732Z,17.90
2023-03-06T15:13:46.171Z,17.88
2023-03-06T15:16:12.620Z,17.90
2023-03-06T15:18:39.133Z,17.97
2023-03-06T15:21:05.872Z,17.98
2023-03-06T15:23:32.371Z,18.01
2023-03-06T15:28:44.264Z,17.97
2023-03-06T15:31:11.535Z,17.98
2023-03-06T15:33:40.288Z,17.96
2023-03-06T15:36:09.467Z,18.08
2023-03-06T15:38:41.756Z,18.06
2023-03-06T15:44:06.738Z,18.09
2023-03-06T15:46:35.910Z,18.26
2023-03-06T15:49:03.152Z,18.21
2023-03-06T15:51:29.757Z,18.24
2023-03-06T15:54:09.778Z,18.15
2023-03-06T15:59:39.720Z,18.17
2023-03-06T16:02:06.130Z,18.24
2023-03-06T16:04:32.710Z,18.20
2023-03-06T16:07:01.934Z,18.09
2023-03-06T16:09:31.114Z,18.16
2023-03-06T16:11:58.367Z,18.15
2023-03-06T16:14:27.539Z,18.10
2023-03-06T16:16:56.791Z,18.09
2023-03-06T16:19:26.448Z,18.08
2023-03-06T16:21:53.566Z,18.05
2023-03-06T16:24:22.910Z,18.16
2023-03-06T16:29:36.079Z,18.34
2023-03-06T16:32:02.622Z,18.35
2023-03-06T16:34:29.127Z,18.35
2023-03-06T16:36:55.509Z,18.36
2023-03-06T16:39:21.981Z,18.38
2023-03-06T16:44:47.805Z,18.32
2023-03-06T16:47:17.016Z,18.24
2023-03-06T16:49:44.315Z,18.18
2023-03-06T16:52:11.577Z,18.19
2023-03-06T16:54:38.029Z,18.17
2023-03-06T17:00:04.342Z,18.19
2023-03-06T17:02:32.688Z,18.18
2023-03-06T17:04:59.165Z,18.29
2023-03-06T17:07:29.104Z,18.27
2023-03-06T17:09:56.395Z,18.29
2023-03-06T17:15:08.660Z,18.35
2023-03-06T17:17:35.954Z,18.38
2023-03-06T17:20:04.277Z,18.41
2023-03-06T17:22:31.733Z,18.43
2023-03-06T17:24:59.507Z,18.44
2023-03-06T17:30:12.312Z,18.43
2023-03-06T17:32:39.619Z,18.49
2023-03-06T17:35:06.115Z,18.54
2023-03-06T17:37:32.585Z,18.56
2023-03-06T17:40:00.041Z,18.45
2023-03-06T17:45:20.554Z,18.50
2023-03-06T17:47:49.076Z,18.50
2023-03-06T17:50:15.609Z,18.54
2023-03-06T17:52:42.046Z,18.54
2023-03-06T17:55:09.390Z,18.52
2023-03-06T18:00:20.005Z,18.54
2023-03-06T18:02:46.462Z,18.58
2023-03-06T18:05:13.893Z,18.55
2023-03-06T18:07:41.221Z,18.56
2023-03-06T18:10:08.548Z,18.55
2023-03-06T18:15:20.427Z,18.54
2023-03-06T18:17:49.632Z,18.55
2023-03-06T18:20:16.131Z,18.53
2023-03-06T18:22:42.558Z,18.49
2023-03-06T18:25:08.997Z,18.57
2023-03-06T18:30:30.473Z,18.56
2023-03-06T18:32:56.953Z,18.57
2023-03-06T18:35:24.403Z,18.57
2023-03-06T18:37:50.947Z,18.49
2023-03-06T18:40:18.339Z,18.47
2023-03-06T18:45:40.732Z,18.47
2023-03-06T18:48:08.537Z,18.46
2023-03-06T18:50:34.975Z,18.44
2023-03-06T18:53:02.353Z,18.40
2023-03-06T18:55:34.864Z,18.41
2023-03-06T19:00:52.915Z,18.41
2023-03-06T19:03:19.418Z,18.42
2023-03-06T19:05:51.875Z,18.38
2023-03-06T19:08:18.295Z,18.38
2023-03-06T19:10:44.740Z,18.32
2023-03-06T19:16:13.895Z,18.28
2023-03-06T19:18:43.571Z,18.26
2023-03-06T19:21:10.026Z,18.27
2023-03-06T19:23:37.385Z,18.25
2023-03-06T19:26:03.836Z,18.27
2023-03-06T19:31:14.304Z,18.41
2023-03-06T19:33:41.650Z,18.45
2023-03-06T19:36:09.540Z,18.46
2023-03-06T19:38:36.850Z,18.47
2023-03-06T19:41:03.312Z,18.43
2023-03-06T19:46:23.724Z,18.49
2023-03-06T19:48:51.092Z,18.47
2023-03-06T19:51:17.549Z,18.41
2023-03-06T19:53:43.997Z,18.30
2023-03-06T19:56:11.384Z,18.28
2023-03-06T20:01:32.566Z,18.22
2023-03-06T20:04:00.135Z,18.28
2023-03-06T20:06:26.653Z,18.33
2023-03-06T20:08:54.696Z,18.27
2023-03-06T20:11:22.101Z,18.52
2023-03-06T20:16:33.223Z,18.73
2023-03-06T20:18:59.685Z,18.80
2023-03-06T20:21:27.280Z,18.78
2023-03-06T20:23:53.777Z,18.77
2023-03-06T20:26:21.193Z,18.91
2023-03-06T20:31:31.998Z,18.54
2023-03-06T20:33:59.394Z,18.49
2023-03-06T20:36:26.814Z,18.63
2023-03-06T20:38:53.226Z,18.53
2023-03-06T20:41:20.027Z,18.51
2023-03-06T20:43:47.374Z,18.49
2023-03-06T20:46:14.763Z,18.45
2023-03-06T20:48:41.234Z,18.50
2023-03-06T20:51:07.695Z,18.57
2023-03-06T20:53:34.970Z,18.57
2023-03-06T20:56:02.251Z,18.62
2023-03-06T20:58:29.068Z,18.50
2023-03-06T21:00:55.466Z,18.58
2023-03-06T21:03:25.456Z,18.55
2023-03-06T21:05:51.921Z,18.59
2023-03-06T21:08:19.156Z,18.71
2023-03-06T21:10:47.450Z,18.68
2023-03-06T21:13:18.174Z,18.56
2023-03-06T21:15:44.915Z,18.61
2023-03-06T21:18:13.252Z,18.58
2023-03-06T21:20:42.449Z,18.59
2023-03-06T21:23:08.823Z,18.74
2023-03-06T21:25:35.243Z,18.63
2023-03-06T21:28:01.709Z,18.65
2023-03-06T21:30:31.084Z,18.56
2023-03-06T21:32:58.320Z,18.53
2023-03-06T21:35:24.671Z,18.55
2023-03-06T21:37:51.022Z,18.53
2023-03-06T21:40:18.280Z,18.57
2023-03-06T21:42:44.775Z,18.59
2023-03-06T21:45:11.242Z,18.65
2023-03-06T21:47:37.748Z,18.66
2023-03-06T21:50:04.227Z,18.69
2023-03-06T21:52:31.534Z,18.51
2023-03-06T21:54:58.923Z,18.40
2023-03-06T21:57:25.439Z,18.74
2023-03-06T21:59:51.878Z,18.59
2023-03-06T22:05:03.023Z,18.47
2023-03-06T22:07:31.351Z,18.50
2023-03-06T22:09:57.805Z,18.46
2023-03-06T22:12:24.164Z,18.52
2023-03-06T22:14:50.687Z,18.48
2023-03-06T22:20:01.437Z,18.49
2023-03-06T22:22:29.742Z,18.41
2023-03-06T22:24:56.180Z,18.41
2023-03-06T22:27:24.454Z,18.41
2023-03-06T22:29:50.777Z,18.36
2023-03-06T22:35:11.259Z,18.42
2023-03-06T22:37:39.613Z,18.46
2023-03-06T22:40:07.868Z,18.39
2023-03-06T22:42:34.267Z,18.39
2023-03-06T22:45:01.544Z,18.33
2023-03-06T22:50:12.223Z,18.38
2023-03-06T22:52:38.655Z,18.34
2023-03-06T22:55:05.085Z,18.34
2023-03-06T22:57:34.262Z,18.31
2023-03-06T23:00:03.426Z,18.40
2023-03-06T23:05:27.419Z,18.36
2023-03-06T23:07:58.302Z,18.46
2023-03-06T23:10:24.721Z,18.39
2023-03-06T23:12:53.885Z,18.33
2023-03-06T23:15:21.125Z,18.32
2023-03-06T23:20:43.535Z,18.38
2023-03-06T23:23:10.181Z,18.36
2023-03-06T23:25:38.492Z,18.32
2023-03-06T23:28:08.475Z,18.36
2023-03-06T23:30:34.956Z,18.27
2023-03-06T23:35:46.240Z,18.25
2023-03-06T23:38:13.616Z,18.33
2023-03-06T23:40:42.805Z,18.32
2023-03-06T23:43:11.099Z,18.31
2023-03-06T23:45:41.001Z,18.33
2023-03-06T23:50:54.390Z,18.31
2023-03-06T23:53:20.841Z,18.31
2023-03-06T23:55:49.205Z,18.24
2023-03-06T23:58:17.507Z,18.31
